createdAt,value
2022-09-01T00:01:42.223Z,100.00
2022-09-01T00:04:12.830Z,100.00
2022-09-01T00:06:40.995Z,100.00
2022-09-01T00:09:11.551Z,100.00
2022-09-01T00:11:39.299Z,100.00
2022-09-01T00:14:10.669Z,100.00
2022-09-01T00:16:55.256Z,100.00
2022-09-01T00:19:23.806Z,100.00
2022-09-01T00:21:50.461Z,100.00
2022-09-01T00:24:18.924Z,100.00
2022-09-01T00:26:46.937Z,100.00
2022-09-01T00:29:14.045Z,100.00
2022-09-01T00:31:41.496Z,100.00
2022-09-01T00:34:08.441Z,100.00
2022-09-01T00:36:35.082Z,100.00
2022-09-01T00:39:02.663Z,100.00
2022-09-01T00:41:31.971Z,100.00
2022-09-01T00:44:02.854Z,100.00
2022-09-01T00:46:33.328Z,100.00
2022-09-01T00:49:05.086Z,100.00
2022-09-01T00:51:34.772Z,100.00
2022-09-01T00:54:03.013Z,100.00
2022-09-01T00:56:31.988Z,100.00
2022-09-01T00:59:00.183Z,100.00
2022-09-01T01:01:27.056Z,100.00
2022-09-01T01:03:53.765Z,100.00
2022-09-01T01:06:26.843Z,100.00
2022-09-01T01:09:01.404Z,100.00
2022-09-01T01:11:32.371Z,100.00
2022-09-01T01:14:05.871Z,100.00
2022-09-01T01:16:32.533Z,100.00
2022-09-01T01:18:59.459Z,100.00
2022-09-01T01:21:49.780Z,100.00
2022-09-01T01:24:28.169Z,100.00
2022-09-01T01:26:59.759Z,100.00
2022-09-01T01:29:31.511Z,100.00
2022-09-01T01:31:58.379Z,100.00
2022-09-01T01:34:25.044Z,100.00
2022-09-01T01:36:52.340Z,100.00
2022-09-01T01:39:23.031Z,100.00
2022-09-01T01:41:51.104Z,100.00
2022-09-01T01:44:22.522Z,100.00
2022-09-01T01:46:52.713Z,100.00
2022-09-01T01:49:24.471Z,100.00
2022-09-01T01:51:57.233Z,100.00
2022-09-01T01:54:27.014Z,100.00
2022-09-01T01:56:54.031Z,100.00
2022-09-01T01:59:20.664Z,100.00
2022-09-01T02:01:49.286Z,100.00
2022-09-01T02:04:17.070Z,100.00
2022-09-01T02:06:46.258Z,100.00
2022-09-01T02:09:14.726Z,100.00
2022-09-01T02:11:41.344Z,100.00
2022-09-01T02:14:08.987Z,100.00
2022-09-01T02:16:36.630Z,100.00
2022-09-01T02:19:07.226Z,100.00
2022-09-01T02:21:34.094Z,100.00
2022-09-01T02:24:04.205Z,100.00
2022-09-01T02:26:35.042Z,100.00
2022-09-01T02:29:04.828Z,100.00
2022-09-01T02:31:36.016Z,100.00
2022-09-01T02:34:04.264Z,100.00
2022-09-01T02:36:35.057Z,100.00
2022-09-01T02:39:01.707Z,100.00
2022-09-01T02:41:29.319Z,100.00
2022-09-01T02:43:56.962Z,100.00
2022-09-01T02:46:24.654Z,100.00
2022-09-01T02:48:52.747Z,100.00
2022-09-01T02:51:22.589Z,100.00
2022-09-01T02:53:51.258Z,100.00
2022-09-01T02:56:21.351Z,100.00
2022-09-01T02:58:51.815Z,100.00
2022-09-01T03:01:24.849Z,100.00
2022-09-01T03:03:54.550Z,100.00
2022-09-01T03:06:24.535Z,100.00
2022-09-01T03:08:54.560Z,100.00
2022-09-01T03:11:23.830Z,100.00
2022-09-01T03:13:50.807Z,100.00
2022-09-01T03:16:17.450Z,100.00
2022-09-01T03:18:44.084Z,100.00
2022-09-01T03:21:16.162Z,100.00
2022-09-01T03:23:44.720Z,100.00
2022-09-01T03:26:11.527Z,100.00
2022-09-01T03:28:38.892Z,100.00
2022-09-01T03:31:06.118Z,100.00
2022-09-01T03:33:34.391Z,100.00
2022-09-01T03:36:01.072Z,100.00
2022-09-01T03:38:28.725Z,100.00
2022-09-01T03:41:00.915Z,100.00
2022-09-01T03:43:34.458Z,100.00
2022-09-01T03:46:03.056Z,100.00
2022-09-01T03:48:31.749Z,100.00
2022-09-01T03:51:03.464Z,100.00
2022-09-01T03:53:35.094Z,100.00
2022-09-01T03:56:04.208Z,100.00
2022-09-01T03:58:31.788Z,100.00
2022-09-01T04:01:02.979Z,100.00
2022-09-01T04:03:34.614Z,100.00
2022-09-01T04:06:03.156Z,100.00
2022-09-01T04:08:32.999Z,100.00
2022-09-01T04:11:05.274Z,100.00
2022-09-01T04:13:36.323Z,100.00
2022-09-01T04:16:09.679Z,100.00
2022-09-01T04:18:36.887Z,100.00
2022-09-01T04:21:06.081Z,100.00
2022-09-01T04:23:35.104Z,100.00
2022-09-01T04:26:09.118Z,100.00
2022-09-01T04:28:40.236Z,100.00
2022-09-01T04:31:10.118Z,100.00
2022-09-01T04:33:40.059Z,100.00
2022-09-01T04:36:19.680Z,100.00
2022-09-01T04:38:48.238Z,100.00
2022-09-01T04:41:17.641Z,100.00
2022-09-01T04:43:47.465Z,100.00
2022-09-01T04:46:16.389Z,100.00
2022-09-01T04:48:46.039Z,100.00
2022-09-01T04:51:15.413Z,100.00
2022-09-01T04:53:48.868Z,100.00
2022-09-01T04:56:19.692Z,100.00
2022-09-01T04:58:47.963Z,100.00
2022-09-01T05:01:18.700Z,100.00
2022-09-01T05:03:45.856Z,100.00
2022-09-01T05:06:17.712Z,100.00
2022-09-01T05:08:46.199Z,100.00
2022-09-01T05:11:17.924Z,100.00
2022-09-01T05:13:48.413Z,100.00
2022-09-01T05:16:22.747Z,100.00
2022-09-01T05:18:54.261Z,100.00
2022-09-01T05:21:24.624Z,100.00
2022-09-01T05:23:51.856Z,100.00
2022-09-01T05:26:23.915Z,100.00
2022-09-01T05:28:54.053Z,100.00
2022-09-01T05:31:23.155Z,100.00
2022-09-01T05:33:50.938Z,100.00
2022-09-01T05:36:20.740Z,100.00
2022-09-01T05:38:49.215Z,100.00
2022-09-01T05:41:18.128Z,100.00
2022-09-01T05:43:47.172Z,100.00
2022-09-01T05:46:17.064Z,100.00
2022-09-01T05:48:45.302Z,100.00
2022-09-01T05:51:40.429Z,100.00
2022-09-01T05:54:04.992Z,100.00
2022-09-01T05:56:33.906Z,100.00
2022-09-01T06:01:50.694Z,100.00
2022-09-01T06:04:17.799Z,100.00
2022-09-01T06:07:06.990Z,100.00
2022-09-01T06:09:38.642Z,100.00
2022-09-01T06:12:06.715Z,100.00
2022-09-01T06:14:34.269Z,100.00
2022-09-01T06:17:01.042Z,100.00
2022-09-01T06:19:28.611Z,100.00
2022-09-01T06:21:56.902Z,100.00
2022-09-01T06:24:23.633Z,100.00
2022-09-01T06:26:50.234Z,100.00
2022-09-01T06:29:16.950Z,100.00
2022-09-01T06:31:51.770Z,100.00
2022-09-01T06:34:19.709Z,100.00
2022-09-01T06:36:49.593Z,100.00
2022-09-01T06:39:26.560Z,100.00
2022-09-01T06:41:54.801Z,100.00
2022-09-01T06:44:23.303Z,100.00
2022-09-01T06:46:51.539Z,100.00
2022-09-01T06:49:19.284Z,100.00
2022-09-01T06:51:49.151Z,100.00
2022-09-01T06:54:16.409Z,100.00
2022-09-01T06:56:44.942Z,100.00
2022-09-01T06:59:18.320Z,100.00
2022-09-01T07:01:45.956Z,100.00
2022-09-01T07:04:13.258Z,100.00
2022-09-01T07:09:47.401Z,100.00
2022-09-01T07:12:27.569Z,100.00
2022-09-01T07:17:43.280Z,100.00
2022-09-01T07:20:27.182Z,100.00
2022-09-01T07:23:04.457Z,100.00
2022-09-01T07:25:48.415Z,100.00
2022-09-01T07:28:25.313Z,100.00
2022-09-01T07:30:53.832Z,100.00
2022-09-01T07:36:27.372Z,100.00
2022-09-01T07:44:28.956Z,100.00
2022-09-01T07:52:31.553Z,100.00
2022-09-01T07:54:58.298Z,100.00
2022-09-01T07:57:24.884Z,100.00
2022-09-01T07:59:53.946Z,100.00
2022-09-01T08:02:20.759Z,100.00
2022-09-01T08:04:48.249Z,100.00
2022-09-01T08:07:15.718Z,94.82
2022-09-01T08:09:44.172Z,96.78
2022-09-01T08:12:11.786Z,95.60
2022-09-01T08:14:38.493Z,94.50
2022-09-01T08:19:53.588Z,91.10
2022-09-01T08:22:24.035Z,87.49
2022-09-01T08:24:52.132Z,90.45
2022-09-01T08:27:19.076Z,88.09
2022-09-01T08:29:45.961Z,91.64
2022-09-01T08:32:13.089Z,93.75
2022-09-01T08:34:40.044Z,92.43
2022-09-01T08:37:07.012Z,89.81
2022-09-01T08:39:33.721Z,88.78
2022-09-01T08:42:32.847Z,86.94
2022-09-01T08:45:18.299Z,86.84
2022-09-01T08:48:15.256Z,87.18
2022-09-01T08:50:35.205Z,87.73
2022-09-01T08:53:12.053Z,84.02
2022-09-01T08:55:47.396Z,83.93
2022-09-01T08:58:18.036Z,85.64
2022-09-01T09:00:54.857Z,87.41
2022-09-01T09:03:43.828Z,80.32
2022-09-01T09:06:21.885Z,79.77
2022-09-01T09:08:58.149Z,78.31
2022-09-01T09:11:26.852Z,75.92
2022-09-01T09:14:25.365Z,74.21
2022-09-01T09:16:56.018Z,75.11
2022-09-01T09:19:25.313Z,74.10
2022-09-01T09:21:54.340Z,74.18
2022-09-01T09:24:52.752Z,75.86
2022-09-01T09:27:23.355Z,80.41
2022-09-01T09:29:53.491Z,77.46
2022-09-01T09:32:23.955Z,73.55
2022-09-01T09:34:54.841Z,74.87
2022-09-01T09:37:28.492Z,73.38
2022-09-01T09:40:18.376Z,76.87
2022-09-01T09:43:02.562Z,76.66
2022-09-01T09:45:34.418Z,74.29
2022-09-01T09:48:07.212Z,75.07
2022-09-01T09:50:43.981Z,75.21
2022-09-01T09:53:28.216Z,76.44
2022-09-01T09:55:59.209Z,71.59
2022-09-01T09:58:39.516Z,70.64
2022-09-01T10:01:14.022Z,75.04
2022-09-01T10:03:50.330Z,72.68
2022-09-01T10:06:37.642Z,70.08
2022-09-01T10:09:08.231Z,70.96
2022-09-01T10:11:49.036Z,71.93
2022-09-01T10:14:48.348Z,72.95
2022-09-01T10:17:15.749Z,73.12
2022-09-01T10:20:05.710Z,71.01
2022-09-01T10:22:33.817Z,73.49
2022-09-01T10:25:00.931Z,78.69
2022-09-01T10:27:32.673Z,77.59
2022-09-01T10:30:21.000Z,74.17
2022-09-01T10:32:55.373Z,70.36
2022-09-01T10:35:26.796Z,72.75
2022-09-01T10:37:55.869Z,75.67
2022-09-01T10:40:33.440Z,81.63
2022-09-01T10:43:36.294Z,74.05
2022-09-01T10:46:26.118Z,73.63
2022-09-01T10:48:57.315Z,72.75
2022-09-01T10:51:39.612Z,72.18
2022-09-01T10:54:30.739Z,70.96
2022-09-01T10:57:03.946Z,70.26
2022-09-01T10:59:41.847Z,76.82
2022-09-01T11:02:25.836Z,75.17
2022-09-01T11:04:54.290Z,77.47
2022-09-01T11:07:29.686Z,80.00
2022-09-01T11:10:38.320Z,80.73
2022-09-01T11:13:36.071Z,77.55
2022-09-01T11:16:45.736Z,73.68
2022-09-01T11:19:30.080Z,73.29
2022-09-01T11:22:27.346Z,72.18
2022-09-01T11:25:14.415Z,73.62
2022-09-01T11:27:58.031Z,75.83
2022-09-01T11:30:36.730Z,76.67
2022-09-01T11:33:24.077Z,75.03
2022-09-01T11:36:00.404Z,74.05
2022-09-01T11:38:28.680Z,76.70
2022-09-01T11:40:57.226Z,74.76
2022-09-01T11:43:26.194Z,75.45
2022-09-01T11:45:55.921Z,67.50
2022-09-01T11:48:25.626Z,69.37
2022-09-01T11:51:01.750Z,69.56
2022-09-01T11:53:28.600Z,70.55
2022-09-01T11:55:57.337Z,72.37
2022-09-01T11:58:34.999Z,72.74
2022-09-01T12:01:22.080Z,74.74
2022-09-01T12:03:51.283Z,75.26
2022-09-01T12:06:23.563Z,73.74
2022-09-01T12:08:56.096Z,74.25
2022-09-01T12:11:30.412Z,74.93
2022-09-01T12:13:59.210Z,74.38
2022-09-01T12:16:26.490Z,74.98
2022-09-01T12:18:55.253Z,76.52
2022-09-01T12:21:30.393Z,77.17
2022-09-01T12:24:21.527Z,76.34
2022-09-01T12:26:54.260Z,74.94
2022-09-01T12:29:21.546Z,75.89
2022-09-01T12:31:51.659Z,76.42
2022-09-01T12:34:39.413Z,76.63
2022-09-01T12:37:19.416Z,78.03
2022-09-01T12:39:48.943Z,78.14
2022-09-01T12:42:28.407Z,77.30
2022-09-01T12:44:57.891Z,76.70
2022-09-01T12:47:50.401Z,77.07
2022-09-01T12:50:17.263Z,76.73
2022-09-01T12:52:54.704Z,77.81
2022-09-01T12:58:11.849Z,78.08
2022-09-01T13:00:56.773Z,79.51
2022-09-01T13:03:23.885Z,77.26
2022-09-01T13:05:53.012Z,77.71
2022-09-01T13:08:22.841Z,78.12
2022-09-01T13:10:53.383Z,76.67
2022-09-01T13:13:25.990Z,76.23
2022-09-01T13:15:56.035Z,77.01
2022-09-01T13:18:24.815Z,79.46
2022-09-01T13:20:53.210Z,80.20
2022-09-01T13:23:20.817Z,79.85
2022-09-01T13:25:48.129Z,79.66
2022-09-01T13:28:16.852Z,79.78
2022-09-01T13:30:48.699Z,79.09
2022-09-01T13:33:19.247Z,79.76
2022-09-01T13:35:47.804Z,78.82
2022-09-01T13:38:16.632Z,77.29
2022-09-01T13:40:46.171Z,77.81
2022-09-01T13:43:15.696Z,77.68
2022-09-01T13:45:42.797Z,73.96
2022-09-01T13:48:16.242Z,75.85
2022-09-01T13:53:39.643Z,77.67
2022-09-01T13:56:06.599Z,74.94
2022-09-01T13:58:33.334Z,74.98
2022-09-01T14:01:00.232Z,77.80
2022-09-01T14:03:27.299Z,75.07
2022-09-01T14:05:54.925Z,75.01
2022-09-01T14:08:22.989Z,76.02
2022-09-01T14:10:52.301Z,73.48
2022-09-01T14:13:21.249Z,75.25
2022-09-01T14:15:49.416Z,77.26
2022-09-01T14:18:17.293Z,75.16
2022-09-01T14:20:47.555Z,75.73
2022-09-01T14:23:16.075Z,73.07
2022-09-01T14:25:47.053Z,74.23
2022-09-01T14:28:14.222Z,73.87
2022-09-01T14:30:43.573Z,73.12
2022-09-01T14:33:10.900Z,74.70
2022-09-01T14:35:40.358Z,73.50
2022-09-01T14:38:08.573Z,73.60
2022-09-01T14:40:38.078Z,72.83
2022-09-01T14:43:09.732Z,72.92
2022-09-01T14:45:38.090Z,73.98
2022-09-01T14:48:05.412Z,73.13
2022-09-01T14:50:34.041Z,73.76
2022-09-01T14:53:02.664Z,74.36
2022-09-01T14:55:30.871Z,74.20
2022-09-01T14:57:59.816Z,73.81
2022-09-01T15:00:27.932Z,72.25
2022-09-01T15:02:55.341Z,73.04
2022-09-01T15:05:23.082Z,77.49
2022-09-01T15:07:50.109Z,77.38
2022-09-01T15:10:25.148Z,77.19
2022-09-01T15:12:57.445Z,76.73
2022-09-01T15:15:25.607Z,75.75
2022-09-01T15:17:52.820Z,76.68
2022-09-01T15:20:35.278Z,78.02
2022-09-01T15:23:02.665Z,76.99
2022-09-01T15:25:29.551Z,77.31
2022-09-01T15:27:56.235Z,78.36
2022-09-01T15:30:23.029Z,79.76
2022-09-01T15:32:53.137Z,77.83
2022-09-01T15:35:22.200Z,76.44
2022-09-01T15:37:50.362Z,77.83
2022-09-01T15:40:18.352Z,77.16
2022-09-01T15:42:45.091Z,76.90
2022-09-01T15:45:15.373Z,79.68
2022-09-01T15:47:45.686Z,81.56
2022-09-01T15:50:21.380Z,77.72
2022-09-01T15:52:52.459Z,75.72
2022-09-01T15:55:22.250Z,76.41
2022-09-01T15:57:48.970Z,76.11
2022-09-01T16:00:17.245Z,76.01
2022-09-01T16:02:44.902Z,75.63
2022-09-01T16:05:12.455Z,76.29
2022-09-01T16:07:40.013Z,77.58
2022-09-01T16:10:12.095Z,78.94
2022-09-01T16:12:43.918Z,77.03
2022-09-01T16:15:14.302Z,75.27
2022-09-01T16:18:03.628Z,78.33
2022-09-01T16:20:37.470Z,78.96
2022-09-01T16:23:21.884Z,78.98
2022-09-01T16:25:49.409Z,78.78
2022-09-01T16:28:35.623Z,78.80
2022-09-01T16:31:10.856Z,79.75
2022-09-01T16:33:39.232Z,78.67
2022-09-01T16:36:35.375Z,79.78
2022-09-01T16:39:18.392Z,81.89
2022-09-01T16:42:15.477Z,84.73
2022-09-01T16:44:50.195Z,85.22
2022-09-01T16:47:25.937Z,86.18
2022-09-01T16:50:18.670Z,84.83
2022-09-01T16:53:18.793Z,83.47
2022-09-01T16:56:01.683Z,84.20
2022-09-01T16:58:44.493Z,84.60
2022-09-01T17:01:41.604Z,85.73
2022-09-01T17:04:23.402Z,86.70
2022-09-01T17:07:02.569Z,88.38
2022-09-01T17:09:38.990Z,90.18
2022-09-01T17:12:17.201Z,89.19
2022-09-01T17:14:56.279Z,89.60
2022-09-01T17:17:33.164Z,88.41
2022-09-01T17:20:01.835Z,89.43
2022-09-01T17:22:28.559Z,88.37
2022-09-01T17:27:38.884Z,86.50
2022-09-01T17:30:07.261Z,87.59
2022-09-01T17:32:50.214Z,90.86
2022-09-01T17:35:46.722Z,91.04
2022-09-01T17:38:37.254Z,88.57
2022-09-01T17:41:23.270Z,86.16
2022-09-01T17:43:49.885Z,86.38
2022-09-01T17:46:24.901Z,86.50
2022-09-01T17:49:00.916Z,87.58
2022-09-01T17:51:39.182Z,89.58
2022-09-01T17:54:22.392Z,89.26
2022-09-01T17:57:05.530Z,91.16
2022-09-01T18:00:06.866Z,91.19
2022-09-01T18:02:58.507Z,91.11
2022-09-01T18:05:26.502Z,91.49
2022-09-01T18:08:13.839Z,91.65
2022-09-01T18:10:56.422Z,90.44
2022-09-01T18:13:51.907Z,91.94
2022-09-01T18:16:23.505Z,91.63
2022-09-01T18:18:51.625Z,92.10
2022-09-01T18:21:22.061Z,88.37
2022-09-01T18:23:55.614Z,87.27
2022-09-01T18:26:29.694Z,86.48
2022-09-01T18:28:57.100Z,85.87
2022-09-01T18:31:58.840Z,86.90
2022-09-01T18:34:39.360Z,87.60
2022-09-01T18:37:27.706Z,89.00
2022-09-01T18:40:11.128Z,89.73
2022-09-01T18:42:50.090Z,90.61
2022-09-01T18:45:37.034Z,93.02
2022-09-01T18:48:29.296Z,92.54
2022-09-01T18:51:16.790Z,93.23
2022-09-01T18:53:44.778Z,92.86
2022-09-01T18:56:42.498Z,92.64
2022-09-01T18:59:24.522Z,93.28
2022-09-01T19:02:02.804Z,89.61
2022-09-01T19:04:33.628Z,89.12
2022-09-01T19:07:23.643Z,89.23
2022-09-01T19:10:06.813Z,89.90
2022-09-01T19:12:44.098Z,90.53
2022-09-01T19:15:26.289Z,90.55
2022-09-01T19:18:20.510Z,92.84
2022-09-01T19:20:52.559Z,90.80
2022-09-01T19:23:25.194Z,90.21
2022-09-01T19:26:06.014Z,90.23
2022-09-01T19:28:47.919Z,89.79
2022-09-01T19:31:23.100Z,90.52
2022-09-01T19:34:05.201Z,91.66
2022-09-01T19:36:40.478Z,90.87
2022-09-01T19:39:13.705Z,90.91
2022-09-01T19:41:48.396Z,91.72
2022-09-01T19:44:31.054Z,92.34
2022-09-01T19:47:21.759Z,92.74
2022-09-01T19:49:54.481Z,92.60
2022-09-01T19:52:38.618Z,93.58
2022-09-01T19:55:29.180Z,93.30
2022-09-01T19:58:16.499Z,92.72
2022-09-01T20:00:52.607Z,93.15
2022-09-01T20:03:29.259Z,92.60
2022-09-01T20:06:12.114Z,92.38
2022-09-01T20:08:48.109Z,91.90
2022-09-01T20:11:28.281Z,90.24
2022-09-01T20:14:17.677Z,90.08
2022-09-01T20:16:49.953Z,90.51
2022-09-01T20:19:22.998Z,91.90
2022-09-01T20:21:49.676Z,91.76
2022-09-01T20:24:34.929Z,91.70
2022-09-01T20:27:33.090Z,91.97
2022-09-01T20:30:07.249Z,91.99
2022-09-01T20:32:51.726Z,93.32
2022-09-01T20:35:29.503Z,94.48
2022-09-01T20:38:00.944Z,93.56
2022-09-01T20:40:34.029Z,93.25
2022-09-01T20:43:20.238Z,93.00
2022-09-01T20:45:46.945Z,92.51
2022-09-01T20:48:23.268Z,92.14
2022-09-01T20:50:52.324Z,92.50
2022-09-01T20:53:35.295Z,92.61
2022-09-01T20:56:11.225Z,92.65
2022-09-01T20:58:53.122Z,92.73
2022-09-01T21:01:34.193Z,92.46
2022-09-01T21:04:31.339Z,92.36
2022-09-01T21:07:19.244Z,92.16
2022-09-01T21:09:54.340Z,93.34
2022-09-01T21:12:33.616Z,93.35
2022-09-01T21:15:09.304Z,93.26
2022-09-01T21:17:44.118Z,93.34
2022-09-01T21:20:31.302Z,94.19
2022-09-01T21:23:03.799Z,94.82
2022-09-01T21:25:33.758Z,95.59
2022-09-01T21:28:04.429Z,95.25
2022-09-01T21:30:34.156Z,95.75
2022-09-01T21:33:01.650Z,95.53
2022-09-01T21:35:28.625Z,95.22
2022-09-01T21:37:55.333Z,94.78
2022-09-01T21:40:25.312Z,93.83
2022-09-01T21:42:59.236Z,92.10
2022-09-01T21:45:26.747Z,90.08
2022-09-01T21:47:53.752Z,90.98
2022-09-01T21:50:22.542Z,90.64
2022-09-01T21:52:49.648Z,90.36
2022-09-01T21:55:22.033Z,90.59
2022-09-01T21:57:50.345Z,90.90
2022-09-01T22:00:20.905Z,91.62
2022-09-01T22:02:47.942Z,91.32
2022-09-01T22:05:15.171Z,91.57
2022-09-01T22:07:45.399Z,91.70
2022-09-01T22:10:15.189Z,90.41
2022-09-01T22:12:43.503Z,88.93
2022-09-01T22:15:13.597Z,87.87
2022-09-01T22:17:40.269Z,86.70
2022-09-01T22:20:09.877Z,86.92
2022-09-01T22:22:36.624Z,86.76
2022-09-01T22:25:08.403Z,87.44
2022-09-01T22:27:35.158Z,87.16
2022-09-01T22:30:03.015Z,86.25
2022-09-01T22:32:33.056Z,86.44
2022-09-01T22:35:02.800Z,85.30
2022-09-01T22:37:29.613Z,85.29
2022-09-01T22:39:56.304Z,84.86
2022-09-01T22:42:22.999Z,83.09
2022-09-01T22:44:49.631Z,82.29
2022-09-01T22:47:16.356Z,83.05
2022-09-01T22:49:43.114Z,84.09
2022-09-01T22:52:09.762Z,83.80
2022-09-01T22:54:36.479Z,83.22
2022-09-01T22:57:03.193Z,82.99
2022-09-01T22:59:29.894Z,81.70
2022-09-01T23:01:56.697Z,81.70
2022-09-01T23:04:23.692Z,82.16
2022-09-01T23:06:52.574Z,83.35
2022-09-01T23:09:20.197Z,83.29
2022-09-01T23:11:47.834Z,82.94
2022-09-01T23:14:14.745Z,83.83
2022-09-01T23:16:41.986Z,83.78
2022-09-01T23:19:08.759Z,83.51
2022-09-01T23:21:36.883Z,83.25
2022-09-01T23:24:04.828Z,82.14
2022-09-01T23:26:32.591Z,83.19
2022-09-01T23:28:59.600Z,83.53
2022-09-01T23:31:29.877Z,83.13
2022-09-01T23:33:56.580Z,83.64
2022-09-01T23:36:26.181Z,83.37
2022-09-01T23:38:53.927Z,83.43
2022-09-01T23:41:29.327Z,82.54
2022-09-01T23:43:57.208Z,83.02
2022-09-01T23:46:30.546Z,82.32
2022-09-01T23:48:57.558Z,82.64
2022-09-01T23:51:25.462Z,82.09
2022-09-01T23:53:52.883Z,81.76
2022-09-01T23:56:24.133Z,82.03
2022-09-01T23:58:51.693Z,82.41
